Time;durP1;ratioP1;P1;durP2;ratioP2;P2;SDS_P1;SDS_P2;PMS_P1;PMS_P2;Temp;Humidity;BMP_temperature;BMP_pressure;BME280_temperature;BME280_humidity;BME280_pressure;Samples;Min_cycle;Max_cycle;Signal;HPM_P1;HPM_P2
2024/01/27 00:00:22;;;;;;;20.80;6.50;;;;;;;0.73;100.00;103218.44;5112150;28;20032;-79
2024/01/27 00:02:47;;;;;;;13.40;6.25;;;;;;;0.67;100.00;103213.56;5093975;28;20395;-78
2024/01/27 00:05:12;;;;;;;17.23;6.95;;;;;;;0.68;100.00;103222.28;5112117;28;20084;-79
2024/01/27 00:07:38;;;;;;;14.95;7.90;;;;;;;0.60;100.00;103218.34;5112162;28;20024;-78
2024/01/27 00:10:03;;;;;;;16.23;6.60;;;;;;;0.60;100.00;103207.81;5111983;28;20364;-79
2024/01/27 00:12:29;;;;;;;16.15;6.03;;;;;;;0.64;100.00;103208.47;5093770;28;20428;-79
2024/01/27 00:14:54;;;;;;;16.38;6.30;;;;;;;0.64;100.00;103197.94;5111917;28;20081;-77
2024/01/27 00:17:23;;;;;;;15.18;5.88;;;;;;;0.64;100.00;103197.09;5112147;28;20082;-78
2024/01/27 00:19:49;;;;;;;13.65;6.05;;;;;;;0.65;100.00;103207.53;5093573;28;20041;-78
2024/01/27 00:22:16;;;;;;;14.00;6.50;;;;;;;0.62;100.00;103202.44;5093799;28;20046;-78
2024/01/27 00:24:42;;;;;;;16.95;6.40;;;;;;;0.61;100.00;103198.13;5111855;28;20476;-78
2024/01/27 00:27:07;;;;;;;21.45;5.68;;;;;;;0.61;100.00;103192.84;5111992;28;20111;-78
2024/01/27 00:29:33;;;;;;;13.05;5.28;;;;;;;0.63;100.00;103193.63;5093762;28;20032;-78
2024/01/27 00:31:58;;;;;;;17.98;6.53;;;;;;;0.58;100.00;103198.31;5112054;28;20019;-78
2024/01/27 00:34:24;;;;;;;20.15;6.65;;;;;;;0.62;100.00;103210.34;5094117;28;20031;-78
2024/01/27 00:36:49;;;;;;;14.60;6.35;;;;;;;0.58;100.00;103209.69;5111718;28;20141;-77
2024/01/27 00:39:15;;;;;;;16.13;6.47;;;;;;;0.60;100.00;103222.75;5111808;28;20078;-77
2024/01/27 00:41:41;;;;;;;14.63;6.18;;;;;;;0.53;100.00;103216.13;5111675;28;20027;-77
2024/01/27 00:44:06;;;;;;;16.40;6.70;;;;;;;0.48;100.00;103212.94;5111776;28;20024;-77
2024/01/27 00:46:32;;;;;;;16.73;6.00;;;;;;;0.41;100.00;103222.13;5093636;28;20053;-79
2024/01/27 00:48:58;;;;;;;14.88;6.75;;;;;;;0.35;100.00;103214.59;5093370;28;20035;-77
2024/01/27 00:51:23;;;;;;;20.63;6.63;;;;;;;0.38;100.00;103220.53;5111386;28;20086;-77
2024/01/27 00:53:48;;;;;;;16.73;6.28;;;;;;;0.42;100.00;103223.81;5111429;28;20415;-77
2024/01/27 00:56:14;;;;;;;16.77;6.57;;;;;;;0.38;100.00;103217.03;5111499;28;20035;-79
2024/01/27 00:58:39;;;;;;;17.20;6.43;;;;;;;0.42;100.00;103218.56;5096135;28;20024;-79
2024/01/27 01:01:05;;;;;;;15.35;6.78;;;;;;;0.43;100.00;103222.88;5115101;28;20063;-78
2024/01/27 01:03:30;;;;;;;15.43;7.65;;;;;;;0.36;100.00;103213.66;5114710;28;20027;-78
2024/01/27 01:05:55;;;;;;;20.67;7.03;;;;;;;0.29;100.00;103214.00;5114715;28;20070;-78
2024/01/27 01:08:21;;;;;;;19.58;7.28;;;;;;;0.35;100.00;103222.50;5115118;28;20464;-77
2024/01/27 01:10:46;;;;;;;17.17;7.38;;;;;;;0.42;100.00;103229.09;5096241;28;20038;-78
2024/01/27 01:13:11;;;;;;;21.80;7.65;;;;;;;0.49;100.00;103235.69;5114381;28;20026;-78
2024/01/27 01:15:37;;;;;;;20.70;8.57;;;;;;;0.48;100.00;103228.72;5096469;28;20051;-78
2024/01/27 01:18:03;;;;;;;15.85;6.95;;;;;;;0.52;100.00;103236.34;5114469;28;20031;-78
2024/01/27 01:20:30;;;;;;;18.02;7.40;;;;;;;0.54;100.00;103231.84;5114595;28;20028;-78
2024/01/27 01:22:55;;;;;;;24.05;8.65;;;;;;;0.52;100.00;103230.22;5115273;28;20055;-78
2024/01/27 01:25:21;;;;;;;15.25;7.68;;;;;;;0.56;100.00;103231.75;5096671;28;20055;-78
2024/01/27 01:27:48;;;;;;;19.27;7.45;;;;;;;0.46;100.00;103222.69;5114223;28;20456;-78
2024/01/27 01:30:13;;;;;;;15.13;6.75;;;;;;;0.36;100.00;103211.88;5114120;28;20076;-78
2024/01/27 01:32:39;;;;;;;16.45;7.07;;;;;;;0.37;100.00;103228.50;5114180;28;20039;-78
2024/01/27 01:35:04;;;;;;;22.00;8.80;;;;;;;0.27;100.00;103220.28;5113934;28;20036;-78
2024/01/27 01:37:30;;;;;;;13.60;6.78;;;;;;;0.28;100.00;103227.22;5095898;28;20038;-77
2024/01/27 01:39:55;;;;;;;21.00;7.95;;;;;;;0.31;100.00;103219.19;5113984;28;20024;-79
2024/01/27 01:42:24;;;;;;;20.92;9.45;;;;;;;0.40;100.00;103220.44;5114373;28;20379;-79
2024/01/27 01:44:50;;;;;;;21.20;8.35;;;;;;;0.49;100.00;103223.38;5114080;28;20368;-79
2024/01/27 01:47:15;;;;;;;19.42;6.35;;;;;;;0.55;100.00;103230.91;5114171;28;20028;-79
2024/01/27 01:49:41;;;;;;;17.85;8.05;;;;;;;0.56;100.00;103222.06;5095652;28;20372;-78
2024/01/27 01:52:07;;;;;;;16.58;7.55;;;;;;;0.53;100.00;103232.78;5095586;28;20032;-79
2024/01/27 01:54:33;;;;;;;17.45;7.18;;;;;;;0.49;100.00;103230.41;5095400;28;20035;-79
2024/01/27 01:56:59;;;;;;;18.98;7.32;;;;;;;0.36;100.00;103224.19;5113704;28;20036;-79
2024/01/27 01:59:24;;;;;;;17.80;7.45;;;;;;;0.35;100.00;103236.50;5113766;28;20034;-79
2024/01/27 02:01:49;;;;;;;14.88;7.57;;;;;;;0.25;100.00;103227.41;5113904;28;20032;-79
2024/01/27 02:04:15;;;;;;;22.23;8.43;;;;;;;0.23;100.00;103230.13;5113663;28;20023;-79
2024/01/27 02:06:40;;;;;;;17.13;7.97;;;;;;;0.22;100.00;103220.53;5113763;28;20395;-79
2024/01/27 02:09:06;;;;;;;21.73;8.50;;;;;;;0.18;100.00;103226.06;5095228;28;20031;-79
2024/01/27 02:11:31;;;;;;;16.65;7.60;;;;;;;0.20;100.00;103234.72;5113513;28;20031;-79
2024/01/27 02:13:56;;;;;;;20.15;8.68;;;;;;;0.24;100.00;103236.22;5094995;28;20031;-78
2024/01/27 02:16:22;;;;;;;19.10;7.55;;;;;;;0.28;100.00;103225.44;5113571;28;20458;-78
2024/01/27 02:18:47;;;;;;;20.25;7.82;;;;;;;0.29;100.00;103221.91;5095132;28;20023;-80
2024/01/27 02:21:13;;;;;;;16.65;8.52;;;;;;;0.33;100.00;103235.72;5113425;28;20124;-79
2024/01/27 02:23:38;;;;;;;22.42;9.23;;;;;;;0.30;100.00;103244.66;5113479;28;20043;-77
2024/01/27 02:26:04;;;;;;;19.05;7.85;;;;;;;0.24;100.00;103244.13;5113452;28;20031;-80
2024/01/27 02:28:32;;;;;;;21.30;9.60;;;;;;;0.34;100.00;103244.47;5113402;28;20039;-79
2024/01/27 02:30:59;;;;;;;19.98;8.65;;;;;;;0.26;100.00;103242.25;5113309;28;20046;-77
2024/01/27 02:33:25;;;;;;;19.63;8.40;;;;;;;0.23;100.00;103238.03;5094683;28;20031;-77
2024/01/27 02:35:50;;;;;;;15.45;8.85;;;;;;;0.19;100.00;103228.63;5113235;28;20057;-78
2024/01/27 02:38:15;;;;;;;16.48;8.63;;;;;;;0.21;100.00;103245.16;5094897;28;20036;-79
2024/01/27 02:40:41;;;;;;;21.73;9.70;;;;;;;0.18;100.00;103242.69;5112985;28;20034;-77
2024/01/27 02:43:06;;;;;;;19.98;7.97;;;;;;;0.14;100.00;103229.81;5113096;28;20080;-76
2024/01/27 02:45:31;;;;;;;25.35;10.10;;;;;;;0.32;100.00;103247.19;5094758;28;20023;-78
2024/01/27 02:47:57;;;;;;;19.20;9.65;;;;;;;0.36;100.00;103240.81;5112929;28;20023;-77
2024/01/27 02:50:22;;;;;;;22.92;10.27;;;;;;;0.35;100.00;103239.13;5112972;28;20361;-78
2024/01/27 02:52:47;;;;;;;19.67;9.80;;;;;;;0.32;100.00;103248.97;5112816;28;20032;-77
2024/01/27 02:55:13;;;;;;;21.85;9.32;;;;;;;0.24;100.00;103244.97;5112870;28;20027;-78
2024/01/27 02:57:40;;;;;;;22.75;9.50;;;;;;;0.18;100.00;103231.34;5112949;28;20023;-78
2024/01/27 03:00:06;;;;;;;21.85;9.18;;;;;;;0.15;100.00;103234.97;5112987;28;20024;-78
2024/01/27 03:02:31;;;;;;;18.98;9.82;;;;;;;0.11;100.00;103241.34;5094379;28;20036;-77
2024/01/27 03:04:57;;;;;;;21.30;8.60;;;;;;;0.01;100.00;103223.56;5112759;28;20417;-77
2024/01/27 03:07:22;;;;;;;21.27;10.30;;;;;;;-0.01;100.00;103242.03;5112597;28;20059;-78
2024/01/27 03:09:47;;;;;;;17.77;9.32;;;;;;;0.04;100.00;103239.16;5094329;28;20384;-78
2024/01/27 03:12:14;;;;;;;21.95;10.27;;;;;;;0.14;100.00;103235.91;5112658;28;20439;-78
2024/01/27 03:14:40;;;;;;;16.15;8.82;;;;;;;0.10;100.00;103234.41;5112405;28;20076;-78
2024/01/27 03:17:05;;;;;;;22.10;9.65;;;;;;;0.13;100.00;103247.38;5112564;28;20031;-74
2024/01/27 03:19:31;;;;;;;21.75;9.30;;;;;;;0.14;100.00;103245.59;5093562;28;20077;-75
2024/01/27 03:21:56;;;;;;;20.50;9.10;;;;;;;0.08;100.00;103238.06;5112634;28;20050;-75
2024/01/27 03:24:21;;;;;;;20.15;9.85;;;;;;;0.01;100.00;103236.72;5112302;28;20042;-76
2024/01/27 03:26:47;;;;;;;18.67;8.40;;;;;;;0.02;100.00;103246.28;5112447;28;20031;-76
2024/01/27 03:29:12;;;;;;;18.05;8.73;;;;;;;-0.07;100.00;103237.97;5094024;28;20436;-76
2024/01/27 03:31:37;;;;;;;20.90;8.93;;;;;;;-0.01;100.00;103247.28;5112424;28;20388;-75
2024/01/27 03:34:03;;;;;;;21.42;10.30;;;;;;;-0.03;100.00;103243.91;5093968;28;20027;-75
2024/01/27 03:36:28;;;;;;;16.67;7.65;;;;;;;-0.08;100.00;103241.53;5094041;28;20495;-77
2024/01/27 03:38:56;;;;;;;19.35;8.02;;;;;;;-0.07;100.00;103247.63;5094001;28;20070;-75
2024/01/27 03:41:21;;;;;;;21.13;9.82;;;;;;;-0.02;100.00;103251.69;5094015;28;20031;-75
2024/01/27 03:43:47;;;;;;;25.70;9.43;;;;;;;-0.02;100.00;103242.97;5112281;28;20027;-75
2024/01/27 03:46:12;;;;;;;26.52;10.65;;;;;;;0.02;100.00;103244.50;5093854;28;20109;-75
2024/01/27 03:48:37;;;;;;;21.02;9.25;;;;;;;0.09;100.00;103252.91;5093952;28;20027;-77
2024/01/27 03:51:03;;;;;;;16.02;9.23;;;;;;;0.10;100.00;103236.19;5112150;28;20042;-76
2024/01/27 03:53:28;;;;;;;18.48;10.02;;;;;;;0.05;100.00;103235.59;5112124;28;20365;-77
2024/01/27 03:55:54;;;;;;;24.08;8.70;;;;;;;0.09;100.00;103247.66;5112243;28;20457;-77
2024/01/27 03:58:20;;;;;;;24.48;9.35;;;;;;;-0.04;100.00;103243.06;5093790;28;20424;-78
2024/01/27 04:00:45;;;;;;;23.63;9.70;;;;;;;-0.06;100.00;103250.19;5111960;28;20046;-77
2024/01/27 04:03:11;;;;;;;15.23;8.63;;;;;;;-0.01;100.00;103253.41;5112154;28;20143;-77
2024/01/27 04:05:36;;;;;;;19.40;8.40;;;;;;;0.03;100.00;103253.25;5093818;28;20092;-76
2024/01/27 04:08:02;;;;;;;16.70;9.65;;;;;;;-0.01;100.00;103256.03;5093554;28;20490;-77
2024/01/27 04:10:27;;;;;;;20.27;10.00;;;;;;;-0.06;100.00;103249.34;5112037;28;20030;-76
2024/01/27 04:12:53;;;;;;;24.92;9.15;;;;;;;-0.14;100.00;103251.53;5093722;28;20024;-76
2024/01/27 04:15:18;;;;;;;17.30;9.43;;;;;;;-0.15;100.00;103260.38;5111818;28;20463;-77
2024/01/27 04:17:43;;;;;;;18.92;9.45;;;;;;;-0.23;100.00;103249.44;5093418;28;20413;-77
2024/01/27 04:20:09;;;;;;;23.77;9.48;;;;;;;-0.18;100.00;103253.50;5093468;28;20379;-76
2024/01/27 04:22:35;;;;;;;16.90;9.93;;;;;;;-0.13;100.00;103261.13;5111765;28;20032;-76
2024/01/27 04:25:01;;;;;;;18.67;8.40;;;;;;;-0.16;100.00;103254.25;5093459;28;20038;-76
2024/01/27 04:27:27;;;;;;;25.65;9.13;;;;;;;-0.24;100.00;103253.00;5111835;28;20031;-76
2024/01/27 04:29:53;;;;;;;24.48;9.80;;;;;;;-0.31;100.00;103250.69;5111590;28;20495;-76
2024/01/27 04:32:18;;;;;;;23.17;8.88;;;;;;;-0.40;100.00;103245.09;5094285;28;20118;-76
2024/01/27 04:34:44;;;;;;;18.00;9.18;;;;;;;-0.38;100.00;103248.47;5096796;28;20388;-76
2024/01/27 04:37:09;;;;;;;16.67;8.45;;;;;;;-0.34;100.00;103250.00;5115309;28;20024;-76
2024/01/27 04:39:34;;;;;;;20.90;9.38;;;;;;;-0.35;100.00;103249.16;5114933;28;20020;-76
2024/01/27 04:42:00;;;;;;;19.92;8.82;;;;;;;-0.34;100.00;103248.22;5096646;28;20425;-77
2024/01/27 04:44:25;;;;;;;18.55;9.15;;;;;;;-0.35;100.00;103251.78;5114970;28;20028;-75
2024/01/27 04:46:50;;;;;;;21.38;10.25;;;;;;;-0.36;100.00;103263.22;5114994;28;20054;-76
2024/01/27 04:49:16;;;;;;;28.02;11.38;;;;;;;-0.39;100.00;103255.50;5114990;28;20415;-76
2024/01/27 04:51:41;;;;;;;21.10;9.88;;;;;;;-0.32;100.00;103267.38;5096674;28;20027;-77
2024/01/27 04:54:07;;;;;;;21.67;11.00;;;;;;;-0.30;100.00;103262.03;5114887;28;20110;-76
2024/01/27 04:56:32;;;;;;;21.80;9.20;;;;;;;-0.29;100.00;103262.88;5114755;28;20028;-77
2024/01/27 04:58:58;;;;;;;18.42;10.15;;;;;;;-0.37;100.00;103258.91;5115010;28;20092;-76
2024/01/27 05:01:23;;;;;;;19.65;9.35;;;;;;;-0.41;100.00;103254.75;5114671;28;20027;-76
2024/01/27 05:03:48;;;;;;;21.30;8.77;;;;;;;-0.47;100.00;103256.88;5114666;28;20103;-76
2024/01/27 05:06:14;;;;;;;16.60;9.13;;;;;;;-0.54;100.00;103251.09;5096355;28;20027;-75
2024/01/27 05:08:39;;;;;;;15.27;8.45;;;;;;;-0.54;100.00;103260.75;5096171;28;20031;-75
2024/01/27 05:11:05;;;;;;;23.77;10.20;;;;;;;-0.54;100.00;103258.13;5114374;28;20028;-74
2024/01/27 05:13:30;;;;;;;17.48;10.07;;;;;;;-0.50;100.00;103255.25;5114275;28;20015;-75
2024/01/27 05:15:56;;;;;;;22.25;11.05;;;;;;;-0.49;100.00;103256.94;5096136;28;20483;-75
2024/01/27 05:18:21;;;;;;;20.15;10.52;;;;;;;-0.55;100.00;103253.81;5114516;28;20027;-75
2024/01/27 05:20:46;;;;;;;27.65;12.90;;;;;;;-0.50;100.00;103263.13;5114389;28;20091;-75
2024/01/27 05:23:12;;;;;;;21.38;10.57;;;;;;;-0.49;100.00;103256.94;5114475;28;20395;-75
2024/01/27 05:25:38;;;;;;;18.23;10.05;;;;;;;-0.51;100.00;103258.81;5095913;28;20019;-76
2024/01/27 05:28:04;;;;;;;21.05;10.75;;;;;;;-0.51;100.00;103263.22;5114258;28;20031;-75
2024/01/27 05:30:29;;;;;;;19.75;11.80;;;;;;;-0.62;100.00;103243.59;5114294;28;20032;-74
2024/01/27 05:32:54;;;;;;;24.52;12.10;;;;;;;-0.52;100.00;103262.38;5095925;28;20027;-74
2024/01/27 05:35:20;;;;;;;20.92;11.15;;;;;;;-0.55;100.00;103265.16;5114156;28;20031;-74
2024/01/27 05:37:45;;;;;;;15.25;9.50;;;;;;;-0.59;100.00;103254.88;5114109;28;20038;-76
2024/01/27 05:40:11;;;;;;;24.02;12.18;;;;;;;-0.67;100.00;103231.66;5095761;28;20031;-75
2024/01/27 05:42:36;;;;;;;18.63;11.90;;;;;;;-0.64;100.00;103234.09;5113609;28;20084;-75
2024/01/27 05:45:02;;;;;;;20.50;12.40;;;;;;;-0.63;100.00;103248.94;5114002;28;20111;-75
2024/01/27 05:47:27;;;;;;;23.08;11.38;;;;;;;-0.66;100.00;103234.19;5113978;28;20050;-75
2024/01/27 05:49:52;;;;;;;24.90;10.80;;;;;;;-0.68;100.00;103227.31;5113939;28;20059;-75
2024/01/27 05:52:18;;;;;;;25.35;11.43;;;;;;;-0.70;100.00;103243.16;5113890;28;20102;-76
2024/01/27 05:54:43;;;;;;;23.48;13.15;;;;;;;-0.74;100.00;103233.75;5113722;28;20873;-75
2024/01/27 05:57:08;;;;;;;22.80;11.68;;;;;;;-0.76;100.00;103237.41;5113866;28;20383;-75
2024/01/27 05:59:34;;;;;;;23.17;13.27;;;;;;;-0.68;100.00;103240.47;5095605;28;20035;-75
2024/01/27 06:01:59;;;;;;;26.73;10.88;;;;;;;-0.70;100.00;103235.28;5113664;28;20024;-75
2024/01/27 06:04:25;;;;;;;25.77;10.77;;;;;;;-0.75;100.00;103242.56;5113706;28;20067;-75
2024/01/27 06:06:50;;;;;;;23.42;12.02;;;;;;;-0.82;100.00;103241.22;5113651;28;20027;-76
2024/01/27 06:09:15;;;;;;;21.33;12.15;;;;;;;-0.83;100.00;103241.28;5095427;28;20039;-75
2024/01/27 06:11:41;;;;;;;29.15;13.73;;;;;;;-0.83;100.00;103236.03;5095256;28;20115;-75
2024/01/27 06:14:06;;;;;;;21.90;13.30;;;;;;;-0.78;100.00;103226.97;5095133;28;20050;-75
2024/01/27 06:16:32;;;;;;;26.38;13.70;;;;;;;-0.78;100.00;103218.25;5113550;28;20035;-75
2024/01/27 06:18:57;;;;;;;24.08;13.57;;;;;;;-0.69;100.00;103239.63;5095168;28;20032;-74
2024/01/27 06:21:23;;;;;;;21.42;14.75;;;;;;;-0.73;100.00;103238.09;5113231;28;20034;-75
2024/01/27 06:23:48;;;;;;;21.70;12.65;;;;;;;-0.72;100.00;103239.78;5113096;28;20031;-74
2024/01/27 06:26:14;;;;;;;20.83;12.13;;;;;;;-0.72;100.00;103245.03;5113397;28;20028;-76
2024/01/27 06:28:40;;;;;;;28.20;16.02;;;;;;;-0.72;100.00;103244.19;5113209;28;20031;-75
2024/01/27 06:31:05;;;;;;;24.48;14.52;;;;;;;-0.72;100.00;103241.56;5094962;28;20032;-75
2024/01/27 06:33:31;;;;;;;25.80;14.38;;;;;;;-0.72;100.00;103249.44;5113232;28;20039;-75
2024/01/27 06:35:57;;;;;;;30.27;12.57;;;;;;;-0.79;100.00;103243.66;5094784;28;20036;-76
2024/01/27 06:38:23;;;;;;;31.08;13.32;;;;;;;-0.81;100.00;103239.44;5113094;28;20461;-76
2024/01/27 06:40:48;;;;;;;22.52;13.77;;;;;;;-0.76;100.00;103248.75;5113151;28;20038;-76
2024/01/27 06:43:13;;;;;;;25.60;14.13;;;;;;;-0.76;100.00;103246.13;5095048;28;20080;-76
2024/01/27 06:45:39;;;;;;;28.42;13.85;;;;;;;-0.78;100.00;103240.09;5113165;28;20106;-76
2024/01/27 06:48:06;;;;;;;20.55;12.57;;;;;;;-0.82;100.00;103254.34;5113076;28;20074;-76
2024/01/27 06:50:32;;;;;;;21.25;13.85;;;;;;;-0.84;100.00;103255.34;5094768;28;20042;-75
2024/01/27 06:52:57;;;;;;;23.45;14.10;;;;;;;-0.83;100.00;103254.41;5112783;28;20398;-76
2024/01/27 06:55:22;;;;;;;23.55;13.52;;;;;;;-0.82;100.00;103258.75;5112105;28;20156;-77
2024/01/27 06:57:48;;;;;;;29.63;13.93;;;;;;;-0.83;100.00;103267.56;5094511;28;20115;-76
2024/01/27 07:00:16;;;;;;;18.80;12.20;;;;;;;-0.75;100.00;103274.09;5112759;28;20028;-76
2024/01/27 07:02:42;;;;;;;28.27;15.93;;;;;;;-0.73;100.00;103276.63;5112743;28;20039;-77
2024/01/27 07:05:09;;;;;;;29.42;14.57;;;;;;;-0.66;100.00;103278.00;5112796;28;20376;-76
2024/01/27 07:07:34;;;;;;;19.02;11.90;;;;;;;-0.65;100.00;103284.94;5094433;28;20428;-76
2024/01/27 07:10:00;;;;;;;28.42;15.55;;;;;;;-0.63;100.00;103285.72;5094412;28;20064;-77
2024/01/27 07:12:25;;;;;;;23.27;13.82;;;;;;;-0.62;100.00;103287.41;5112653;28;20388;-76
2024/01/27 07:14:52;;;;;;;23.20;17.13;;;;;;;-0.60;100.00;103288.19;5112568;28;20045;-76
2024/01/27 07:17:17;;;;;;;25.27;15.77;;;;;;;-0.51;100.00;103286.88;5094366;28;20027;-78
2024/01/27 07:19:42;;;;;;;20.00;12.25;;;;;;;-0.54;100.00;103287.88;5112621;28;20047;-77
2024/01/27 07:22:08;;;;;;;26.50;14.68;;;;;;;-0.53;100.00;103289.56;5094324;28;20028;-77
2024/01/27 07:24:33;;;;;;;26.83;13.25;;;;;;;-0.57;100.00;103284.56;5094187;28;20488;-77
2024/01/27 07:27:03;;;;;;;25.75;14.07;;;;;;;-0.55;100.00;103294.06;5112377;28;20028;-77
2024/01/27 07:29:29;;;;;;;23.75;13.23;;;;;;;-0.57;100.00;103290.69;5112415;28;20365;-77
2024/01/27 07:31:54;;;;;;;25.80;14.70;;;;;;;-0.53;100.00;103297.47;5112429;28;20050;-76
2024/01/27 07:34:20;;;;;;;28.17;14.45;;;;;;;-0.58;100.00;103288.94;5094252;28;20110;-75
2024/01/27 07:36:45;;;;;;;23.85;12.85;;;;;;;-0.48;100.00;103294.59;5112353;28;20062;-74
2024/01/27 07:39:11;;;;;;;31.13;13.73;;;;;;;-0.40;100.00;103292.38;5112426;28;20024;-77
2024/01/27 07:41:36;;;;;;;25.05;15.00;;;;;;;-0.35;100.00;103292.97;5112265;28;20115;-77
2024/01/27 07:44:11;;;;;;;28.90;13.80;;;;;;;-0.31;100.00;103292.72;5112419;28;20031;-77
2024/01/27 07:46:38;;;;;;;33.45;13.68;;;;;;;-0.21;100.00;103302.78;5111956;28;20451;-77
2024/01/27 07:49:05;;;;;;;25.85;15.52;;;;;;;-0.07;100.00;103300.22;5093692;28;20028;-77
2024/01/27 07:51:30;;;;;;;27.50;15.25;;;;;;;0.20;100.00;103308.38;5111938;28;20119;-75
2024/01/27 07:53:55;;;;;;;26.20;12.57;;;;;;;0.46;100.00;103320.06;5111962;28;20099;-73
2024/01/27 07:56:21;;;;;;;23.33;14.15;;;;;;;0.66;100.00;103313.69;5112077;28;20531;-72
2024/01/27 07:58:46;;;;;;;24.05;12.88;;;;;;;1.00;100.00;103318.69;5112068;28;20492;-71
2024/01/27 08:01:15;;;;;;;21.80;12.23;;;;;;;1.15;100.00;103324.81;5111884;28;20062;-71
2024/01/27 08:03:41;;;;;;;19.75;10.52;;;;;;;1.31;100.00;103314.22;5112087;28;20062;-71
2024/01/27 08:06:09;;;;;;;22.13;11.43;;;;;;;1.78;100.00;103311.31;5094347;28;20027;-70
2024/01/27 08:08:35;;;;;;;22.35;10.90;;;;;;;2.14;100.00;103306.34;5115547;28;20042;-73
2024/01/27 08:11:00;;;;;;;19.63;10.75;;;;;;;2.64;100.00;103302.22;5115652;28;20027;-72
2024/01/27 08:13:25;;;;;;;21.58;10.30;;;;;;;2.70;100.00;103308.88;5115832;28;20035;-73
2024/01/27 08:15:51;;;;;;;21.08;9.68;;;;;;;2.48;100.00;103298.88;5115770;28;20028;-75
2024/01/27 08:18:16;;;;;;;17.80;9.18;;;;;;;2.77;100.00;103297.81;5115781;28;20047;-75
2024/01/27 08:20:42;;;;;;;25.75;10.07;;;;;;;3.11;100.00;103306.09;5097471;28;20037;-74
2024/01/27 08:23:08;;;;;;;18.40;9.95;;;;;;;3.30;100.00;103308.34;5115636;28;20032;-74
2024/01/27 08:25:33;;;;;;;19.52;9.00;;;;;;;3.40;100.00;103307.59;5115738;28;20023;-73
2024/01/27 08:27:59;;;;;;;17.73;8.50;;;;;;;3.59;100.00;103306.31;5115422;28;20035;-73
2024/01/27 08:30:24;;;;;;;15.85;8.80;;;;;;;4.18;100.00;103302.06;5115574;28;20038;-73
2024/01/27 08:32:49;;;;;;;16.80;9.07;;;;;;;4.94;100.00;103299.03;5115264;28;20027;-76
2024/01/27 08:35:15;;;;;;;28.73;9.73;;;;;;;5.44;100.00;103312.84;5096811;28;20546;-75
2024/01/27 08:37:40;;;;;;;20.67;9.57;;;;;;;5.82;100.00;103309.84;5115075;28;20032;-74
2024/01/27 08:40:07;;;;;;;18.27;8.18;;;;;;;6.25;100.00;103306.41;5114863;28;20133;-75
2024/01/27 08:42:32;;;;;;;16.33;7.63;;;;;;;6.40;100.00;103313.16;5114683;28;20122;-74
2024/01/27 08:44:57;;;;;;;14.40;8.07;;;;;;;5.81;100.00;103310.81;5114728;28;20028;-75
2024/01/27 08:47:23;;;;;;;18.17;8.50;;;;;;;4.87;100.00;103315.47;5096538;28;20035;-75
2024/01/27 08:49:49;;;;;;;17.40;8.07;;;;;;;4.48;100.00;103312.19;5114734;28;20023;-74
2024/01/27 08:52:14;;;;;;;19.10;9.57;;;;;;;4.53;100.00;103327.75;5114526;28;20031;-75
2024/01/27 08:54:40;;;;;;;17.52;8.32;;;;;;;4.82;100.00;103333.53;5096355;28;20052;-75
2024/01/27 08:57:06;;;;;;;22.63;9.15;;;;;;;4.74;100.00;103339.44;5114419;28;20479;-75
2024/01/27 08:59:31;;;;;;;16.90;7.65;;;;;;;4.54;100.00;103322.34;5114579;28;20054;-74
2024/01/27 09:01:56;;;;;;;15.60;8.68;;;;;;;4.26;100.00;103328.81;5114457;28;20023;-74
2024/01/27 09:04:22;;;;;;;16.85;7.95;;;;;;;4.25;100.00;103323.63;5114484;28;20441;-75
2024/01/27 09:06:47;;;;;;;19.25;9.02;;;;;;;4.00;100.00;103325.38;5114349;28;20469;-76
2024/01/27 09:09:13;;;;;;;17.63;8.68;;;;;;;3.89;100.00;103338.56;5114474;28;20099;-76
2024/01/27 09:11:38;;;;;;;17.58;8.00;;;;;;;3.94;100.00;103327.63;5114436;28;20436;-76
2024/01/27 09:14:07;;;;;;;13.77;6.90;;;;;;;4.21;100.00;103332.75;5114403;28;20031;-76
2024/01/27 09:16:32;;;;;;;15.55;8.55;;;;;;;4.48;100.00;103335.19;5114303;28;20487;-75
2024/01/27 09:18:57;;;;;;;19.15;8.05;;;;;;;4.55;100.00;103337.28;5113344;28;20026;-75
2024/01/27 09:21:27;;;;;;;12.93;7.10;;;;;;;4.73;100.00;103334.25;5096085;28;20032;-76
2024/01/27 09:23:54;;;;;;;18.90;7.95;;;;;;;4.75;100.00;103349.06;5096108;28;20027;-76
2024/01/27 09:26:19;;;;;;;15.45;7.57;;;;;;;4.33;100.00;103353.03;5095922;28;20036;-75
2024/01/27 09:28:47;;;;;;;15.90;9.10;;;;;;;4.05;100.00;103338.31;5114317;28;20034;-75
2024/01/27 09:31:13;;;;;;;16.13;7.65;;;;;;;3.94;100.00;103349.66;5095997;28;20093;-76
2024/01/27 09:33:38;;;;;;;16.33;9.50;;;;;;;3.62;100.00;103354.56;5095588;28;20024;-74
2024/01/27 09:36:04;;;;;;;18.27;8.55;;;;;;;3.61;100.00;103360.81;5095659;28;20027;-76
2024/01/27 09:38:29;;;;;;;20.27;8.68;;;;;;;4.68;100.00;103365.53;5095778;28;20073;-74
2024/01/27 09:40:55;;;;;;;13.65;7.40;;;;;;;6.04;100.00;103382.50;5095790;28;20082;-76
2024/01/27 09:43:21;;;;;;;16.00;7.43;;;;;;;5.65;100.00;103376.69;5114095;28;20035;-76
2024/01/27 09:45:47;;;;;;;14.65;8.10;;;;;;;4.93;100.00;103379.50;5113896;28;20102;-76
2024/01/27 09:48:12;;;;;;;22.00;7.57;;;;;;;4.50;100.00;103384.47;5114032;28;20087;-77
2024/01/27 09:50:41;;;;;;;21.05;8.57;;;;;;;4.30;100.00;103377.09;5095447;28;20031;-75
2024/01/27 09:53:08;;;;;;;11.43;6.30;;;;;;;4.88;100.00;103378.13;5095517;28;20455;-75
2024/01/27 09:55:34;;;;;;;16.98;7.93;;;;;;;5.71;100.00;103385.97;5113508;28;20040;-75
2024/01/27 09:58:00;;;;;;;16.95;7.05;;;;;;;5.99;100.00;103393.50;5095242;28;20142;-75
2024/01/27 10:00:26;;;;;;;22.50;7.50;;;;;;;6.11;100.00;103400.50;5114021;28;20095;-75
2024/01/27 10:02:52;;;;;;;17.25;7.32;;;;;;;6.22;100.00;103403.16;5095176;28;20023;-75
2024/01/27 10:05:18;;;;;;;18.08;7.07;;;;;;;6.47;100.00;103407.34;5095262;28;20059;-75
2024/01/27 10:07:44;;;;;;;19.63;7.10;;;;;;;6.66;100.00;103406.72;5095097;28;20031;-75
2024/01/27 10:10:10;;;;;;;13.05;6.55;;;;;;;6.63;100.00;103408.75;5095195;28;20457;-75
2024/01/27 10:12:41;;;;;;;17.65;7.68;;;;;;;6.32;100.00;103397.09;5095289;28;20456;-75
2024/01/27 10:15:07;;;;;;;20.00;7.78;;;;;;;6.26;100.00;103387.81;5113529;28;20392;-74
2024/01/27 10:17:34;;;;;;;10.15;6.18;;;;;;;6.63;100.00;103404.28;5113556;28;20036;-75
2024/01/27 10:20:04;;;;;;;14.55;7.07;;;;;;;6.67;100.00;103407.56;5095121;28;20027;-74
2024/01/27 10:22:44;;;;;;;12.75;6.63;;;;;;;6.62;100.00;103405.25;5094907;28;20387;-75
2024/01/27 10:25:10;;;;;;;13.25;6.35;;;;;;;6.67;100.00;103412.88;5113177;28;20496;-75
2024/01/27 10:27:36;;;;;;;18.95;7.53;;;;;;;7.50;100.00;103404.97;5113244;28;20096;-75
2024/01/27 10:30:02;;;;;;;15.63;6.85;;;;;;;8.58;100.00;103390.16;5094884;28;20024;-74
2024/01/27 10:32:27;;;;;;;15.90;7.00;;;;;;;9.49;100.00;103391.53;5113127;28;20023;-75
2024/01/27 10:35:09;;;;;;;13.45;5.90;;;;;;;10.27;100.00;103397.47;5113164;28;20112;-75
2024/01/27 10:37:35;;;;;;;12.80;5.47;;;;;;;10.95;100.00;103394.34;5113180;28;20028;-74
2024/01/27 10:40:01;;;;;;;10.52;6.55;;;;;;;10.79;100.00;103419.97;5112999;28;20035;-74
2024/01/27 10:42:29;;;;;;;17.50;6.32;;;;;;;10.52;100.00;103423.53;5094266;28;20027;-75
2024/01/27 10:44:58;;;;;;;15.15;6.40;;;;;;;10.06;100.00;103416.41;5112832;28;20110;-75
2024/01/27 10:47:30;;;;;;;9.27;5.80;;;;;;;10.86;100.00;103421.03;5112902;28;20535;-76
2024/01/27 10:49:57;;;;;;;12.85;6.65;;;;;;;10.72;100.00;103416.22;5094510;28;20061;-77
2024/01/27 10:52:28;;;;;;;16.73;7.40;;;;;;;10.63;100.00;103410.91;5094762;28;20526;-78
2024/01/27 10:54:58;;;;;;;16.80;5.40;;;;;;;10.71;100.00;103411.88;5112917;28;20063;-76
2024/01/27 10:57:25;;;;;;;12.95;5.78;;;;;;;10.81;100.00;103382.34;5094407;28;20027;-75
2024/01/27 10:59:53;;;;;;;15.25;6.60;;;;;;;11.49;100.00;103387.91;5094404;28;20077;-75
2024/01/27 11:02:19;;;;;;;13.95;5.85;;;;;;;11.08;100.00;103382.25;5094423;28;20028;-75
2024/01/27 11:04:47;;;;;;;11.05;6.95;;;;;;;10.42;100.00;103379.13;5094384;28;20031;-75